sensor_id;sensor_type;location;lat;lon;timestamp;pressure;altitude;pressure_sealevel;temperature
18474;BMP180;30265;52.408;13.500;2023-03-03T00:09:41;102711.00;;;5.00
18474;BMP180;30265;52.408;13.500;2023-03-03T00:20:34;102734.00;;;4.70
18474;BMP180;30265;52.408;13.500;2023-03-03T00:30:57;102742.00;;;4.80
18474;BMP180;30265;52.408;13.500;2023-03-03T00:41:23;102723.00;;;4.60
18474;BMP180;30265;52.408;13.500;2023-03-03T00:51:44;102715.00;;;4.60
18474;BMP180;30265;52.408;13.500;2023-03-03T01:02:07;102700.00;;;4.70
18474;BMP180;30265;52.408;13.500;2023-03-03T01:12:29;102710.00;;;4.40
18474;BMP180;30265;52.408;13.500;2023-03-03T01:22:54;102693.00;;;4.50
18474;BMP180;30265;52.408;13.500;2023-03-03T01:33:16;102697.00;;;4.50
18474;BMP180;30265;52.408;13.500;2023-03-03T01:43:42;102665.00;;;4.80
18474;BMP180;30265;52.408;13.500;2023-03-03T01:54:08;102660.00;;;4.70
18474;BMP180;30265;52.408;13.500;2023-03-03T02:04:33;102667.00;;;4.80
18474;BMP180;30265;52.408;13.500;2023-03-03T02:14:55;102650.00;;;4.80
18474;BMP180;30265;52.408;13.500;2023-03-03T02:25:22;102671.00;;;4.90
18474;BMP180;30265;52.408;13.500;2023-03-03T02:35:47;102668.00;;;4.80
18474;BMP180;30265;52.408;13.500;2023-03-03T02:46:10;102671.00;;;4.90
18474;BMP180;30265;52.408;13.500;2023-03-03T02:56:33;102668.00;;;5.00
18474;BMP180;30265;52.408;13.500;2023-03-03T03:06:56;102648.00;;;4.90
18474;BMP180;30265;52.408;13.500;2023-03-03T03:17:21;102685.00;;;4.90
18474;BMP180;30265;52.408;13.500;2023-03-03T03:27:44;102688.00;;;5.00
18474;BMP180;30265;52.408;13.500;2023-03-03T03:38:08;102690.00;;;5.00
18474;BMP180;30265;52.408;13.500;2023-03-03T03:48:30;102698.00;;;4.90
18474;BMP180;30265;52.408;13.500;2023-03-03T03:58:54;102682.00;;;4.80
18474;BMP180;30265;52.408;13.500;2023-03-03T04:09:16;102665.00;;;4.80
18474;BMP180;30265;52.408;13.500;2023-03-03T04:19:40;102671.00;;;4.60
18474;BMP180;30265;52.408;13.500;2023-03-03T04:30:03;102657.00;;;4.50
18474;BMP180;30265;52.408;13.500;2023-03-03T04:40:26;102664.00;;;4.60
18474;BMP180;30265;52.408;13.500;2023-03-03T04:50:48;102664.00;;;4.50
18474;BMP180;30265;52.408;13.500;2023-03-03T05:01:13;102680.00;;;4.30
18474;BMP180;30265;52.408;13.500;2023-03-03T05:11:35;102668.00;;;4.20
18474;BMP180;30265;52.408;13.500;2023-03-03T05:21:58;102661.00;;;4.10
18474;BMP180;30265;52.408;13.500;2023-03-03T05:32:20;102687.00;;;4.00
18474;BMP180;30265;52.408;13.500;2023-03-03T05:42:43;102686.00;;;4.00
18474;BMP180;30265;52.408;13.500;2023-03-03T05:53:04;102696.00;;;3.90
18474;BMP180;30265;52.408;13.500;2023-03-03T06:03:27;102705.00;;;3.80
18474;BMP180;30265;52.408;13.500;2023-03-03T06:13:49;102711.00;;;3.80
18474;BMP180;30265;52.408;13.500;2023-03-03T06:24:12;102713.00;;;4.00
18474;BMP180;30265;52.408;13.500;2023-03-03T06:34:33;102742.00;;;3.90
18474;BMP180;30265;52.408;13.500;2023-03-03T06:44:56;102727.00;;;4.10
18474;BMP180;30265;52.408;13.500;2023-03-03T06:55:22;102746.00;;;4.00
18474;BMP180;30265;52.408;13.500;2023-03-03T07:05:44;102754.00;;;4.10
18474;BMP180;30265;52.408;13.500;2023-03-03T07:16:11;102760.00;;;4.10
18474;BMP180;30265;52.408;13.500;2023-03-03T07:26:35;102746.00;;;4.30
18474;BMP180;30265;52.408;13.500;2023-03-03T07:36:58;102780.00;;;4.20
18474;BMP180;30265;52.408;13.500;2023-03-03T07:47:25;102776.00;;;4.30
18474;BMP180;30265;52.408;13.500;2023-03-03T07:57:49;102777.00;;;4.10
18474;BMP180;30265;52.408;13.500;2023-03-03T08:08:23;102778.00;;;4.50
18474;BMP180;30265;52.408;13.500;2023-03-03T08:18:50;102779.00;;;4.20
18474;BMP180;30265;52.408;13.500;2023-03-03T08:29:13;102770.00;;;4.50
18474;BMP180;30265;52.408;13.500;2023-03-03T08:39:35;102772.00;;;4.60
18474;BMP180;30265;52.408;13.500;2023-03-03T08:49:57;102769.00;;;4.70
18474;BMP180;30265;52.408;13.500;2023-03-03T09:00:20;102784.00;;;4.70
18474;BMP180;30265;52.408;13.500;2023-03-03T09:10:43;102769.00;;;4.60
18474;BMP180;30265;52.408;13.500;2023-03-03T09:21:20;102778.00;;;4.60
18474;BMP180;30265;52.408;13.500;2023-03-03T09:31:45;102752.00;;;4.80
18474;BMP180;30265;52.408;13.500;2023-03-03T09:42:30;102747.00;;;5.40
18474;BMP180;30265;52.408;13.500;2023-03-03T09:53:05;102759.00;;;5.80
18474;BMP180;30265;52.408;13.500;2023-03-03T10:03:53;102755.00;;;5.30
18474;BMP180;30265;52.408;13.500;2023-03-03T10:14:27;102744.00;;;5.90
18474;BMP180;30265;52.408;13.500;2023-03-03T10:25:02;102736.00;;;6.20
18474;BMP180;30265;52.408;13.500;2023-03-03T10:35:39;102712.00;;;6.60
18474;BMP180;30265;52.408;13.500;2023-03-03T10:46:34;102717.00;;;6.40
18474;BMP180;30265;52.408;13.500;2023-03-03T10:57:02;102716.00;;;6.70
18474;BMP180;30265;52.408;13.500;2023-03-03T11:07:32;102725.00;;;6.90
18474;BMP180;30265;52.408;13.500;2023-03-03T11:18:14;102724.00;;;6.90
18474;BMP180;30265;52.408;13.500;2023-03-03T11:28:50;102724.00;;;7.00
18474;BMP180;30265;52.408;13.500;2023-03-03T11:39:16;102717.00;;;7.00
18474;BMP180;30265;52.408;13.500;2023-03-03T11:49:41;102712.00;;;7.00
18474;BMP180;30265;52.408;13.500;2023-03-03T12:00:17;102695.00;;;7.30
18474;BMP180;30265;52.408;13.500;2023-03-03T12:10:44;102661.00;;;7.40
18474;BMP180;30265;52.408;13.500;2023-03-03T12:21:21;102675.00;;;7.20
18474;BMP180;30265;52.408;13.500;2023-03-03T12:31:50;102652.00;;;7.60
18474;BMP180;30265;52.408;13.500;2023-03-03T12:42:23;102641.00;;;7.60
18474;BMP180;30265;52.408;13.500;2023-03-03T12:52:52;102627.00;;;7.60
18474;BMP180;30265;52.408;13.500;2023-03-03T13:03:31;102611.00;;;7.70
18474;BMP180;30265;52.408;13.500;2023-03-03T13:14:22;102597.00;;;7.80
18474;BMP180;30265;52.408;13.500;2023-03-03T13:24:57;102590.00;;;8.20
18474;BMP180;30265;52.408;13.500;2023-03-03T13:35:31;102595.00;;;8.10
18474;BMP180;30265;52.408;13.500;2023-03-03T13:45:58;102598.00;;;7.80
18474;BMP180;30265;52.408;13.500;2023-03-03T13:56:30;102580.00;;;8.40
18474;BMP180;30265;52.408;13.500;2023-03-03T14:07:02;102566.00;;;8.20
18474;BMP180;30265;52.408;13.500;2023-03-03T14:17:31;102570.00;;;8.30
18474;BMP180;30265;52.408;13.500;2023-03-03T14:28:03;102555.00;;;8.00
18474;BMP180;30265;52.408;13.500;2023-03-03T14:38:36;102541.00;;;8.40
18474;BMP180;30265;52.408;13.500;2023-03-03T14:49:01;102526.00;;;8.50
18474;BMP180;30265;52.408;13.500;2023-03-03T14:59:24;102527.00;;;8.50
18474;BMP180;30265;52.408;13.500;2023-03-03T15:09:49;102518.00;;;8.50
18474;BMP180;30265;52.408;13.500;2023-03-03T15:20:36;102510.00;;;8.80
18474;BMP180;30265;52.408;13.500;2023-03-03T15:31:04;102497.00;;;8.70
18474;BMP180;30265;52.408;13.500;2023-03-03T15:41:37;102482.00;;;8.70
18474;BMP180;30265;52.408;13.500;2023-03-03T15:52:11;102486.00;;;8.80
18474;BMP180;30265;52.408;13.500;2023-03-03T16:02:47;102476.00;;;8.90
18474;BMP180;30265;52.408;13.500;2023-03-03T16:24:10;102477.00;;;8.80
18474;BMP180;30265;52.408;13.500;2023-03-03T16:34:46;102472.00;;;8.80
18474;BMP180;30265;52.408;13.500;2023-03-03T16:45:20;102478.00;;;8.50
18474;BMP180;30265;52.408;13.500;2023-03-03T16:55:51;102471.00;;;8.30
18474;BMP180;30265;52.408;13.500;2023-03-03T17:06:21;102475.00;;;8.20
18474;BMP180;30265;52.408;13.500;2023-03-03T17:16:51;102471.00;;;8.20
18474;BMP180;30265;52.408;13.500;2023-03-03T17:27:24;102455.00;;;8.10
18474;BMP180;30265;52.408;13.500;2023-03-03T17:37:54;102459.00;;;8.10
18474;BMP180;30265;52.408;13.500;2023-03-03T17:48:41;102462.00;;;8.00
18474;BMP180;30265;52.408;13.500;2023-03-03T18:10:25;102455.00;;;8.20
18474;BMP180;30265;52.408;13.500;2023-03-03T18:21:09;102460.00;;;8.20
18474;BMP180;30265;52.408;13.500;2023-03-03T18:31:47;102449.00;;;8.20
18474;BMP180;30265;52.408;13.500;2023-03-03T18:42:35;102435.00;;;8.20
18474;BMP180;30265;52.408;13.500;2023-03-03T18:53:25;102433.00;;;8.10
18474;BMP180;30265;52.408;13.500;2023-03-03T19:04:02;102433.00;;;8.10
18474;BMP180;30265;52.408;13.500;2023-03-03T19:14:33;102435.00;;;8.10
18474;BMP180;30265;52.408;13.500;2023-03-03T19:25:21;102438.00;;;8.10
18474;BMP180;30265;52.408;13.500;2023-03-03T19:46:48;102423.00;;;8.20
18474;BMP180;30265;52.408;13.500;2023-03-03T19:57:21;102412.00;;;8.30
18474;BMP180;30265;52.408;13.500;2023-03-03T20:07:54;102394.00;;;8.30
18474;BMP180;30265;52.408;13.500;2023-03-03T20:18:43;102401.00;;;8.30
18474;BMP180;30265;52.408;13.500;2023-03-03T20:29:24;102393.00;;;8.40
18474;BMP180;30265;52.408;13.500;2023-03-03T20:39:56;102386.00;;;8.40
18474;BMP180;30265;52.408;13.500;2023-03-03T20:50:26;102377.00;;;8.40
18474;BMP180;30265;52.408;13.500;2023-03-03T21:00:56;102373.00;;;8.50
18474;BMP180;30265;52.408;13.500;2023-03-03T21:11:41;102371.00;;;8.60
18474;BMP180;30265;52.408;13.500;2023-03-03T21:22:03;102355.00;;;8.60
18474;BMP180;30265;52.408;13.500;2023-03-03T21:32:36;102349.00;;;8.50
18474;BMP180;30265;52.408;13.500;2023-03-03T21:42:59;102332.00;;;8.60
18474;BMP180;30265;52.408;13.500;2023-03-03T21:53:22;102330.00;;;8.60
18474;BMP180;30265;52.408;13.500;2023-03-03T22:03:46;102326.00;;;8.60
18474;BMP180;30265;52.408;13.500;2023-03-03T22:14:09;102322.00;;;8.50
18474;BMP180;30265;52.408;13.500;2023-03-03T22:24:31;102287.00;;;8.40
18474;BMP180;30265;52.408;13.500;2023-03-03T22:34:54;102292.00;;;8.40
18474;BMP180;30265;52.408;13.500;2023-03-03T22:57:11;102279.00;;;8.30
18474;BMP180;30265;52.408;13.500;2023-03-03T23:07:57;102268.00;;;8.30
18474;BMP180;30265;52.408;13.500;2023-03-03T23:18:21;102235.00;;;8.20
18474;BMP180;30265;52.408;13.500;2023-03-03T23:28:43;102230.00;;;7.90
18474;BMP180;30265;52.408;13.500;2023-03-03T23:39:06;102207.00;;;7.50
18474;BMP180;30265;52.408;13.500;2023-03-03T23:49:28;102212.00;;;7.30
18474;BMP180;30265;52.408;13.500;2023-03-03T23:59:51;102223.00;;;7.10
